Time;durP1;ratioP1;P1;durP2;ratioP2;P2;SDS_P1;SDS_P2;PMS_P1;PMS_P2;Temp;Humidity;BMP_temperature;BMP_pressure;BME280_temperature;BME280_humidity;BME280_pressure;Samples;Min_cycle;Max_cycle;Signal;HPM_P1;HPM_P2
2022/06/25 00:01:25;;;;;;;3.80;1.38;;;;;;;23.17;58.30;100775.63;5054275;28;20460;-66
2022/06/25 00:03:51;;;;;;;2.40;1.20;;;;;;;23.16;57.79;100778.44;5053336;28;20035;-66
2022/06/25 00:06:17;;;;;;;2.88;1.30;;;;;;;23.16;57.78;100773.97;5053718;28;20143;-66
2022/06/25 00:08:47;;;;;;;3.53;1.33;;;;;;;23.16;58.02;100775.78;5054422;28;20025;-66
2022/06/25 00:12:31;;;;;;;2.15;1.10;;;;;;;23.15;58.02;100771.47;5053733;28;20044;-66
2022/06/25 00:14:03;;;;;;;3.05;1.35;;;;;;;23.14;58.00;100778.59;5053530;28;20053;-66
2022/06/25 00:16:28;;;;;;;2.03;1.00;;;;;;;23.14;57.85;100791.88;5053372;28;20471;-65
2022/06/25 00:18:54;;;;;;;2.25;1.20;;;;;;;23.14;57.66;100785.75;5054337;28;20035;-66
2022/06/25 00:21:19;;;;;;;2.55;1.38;;;;;;;23.13;58.15;100782.25;5053769;28;20075;-66
2022/06/25 00:23:44;;;;;;;2.38;1.20;;;;;;;23.13;58.00;100782.25;5053368;28;20029;-66
2022/06/25 00:26:09;;;;;;;2.47;1.20;;;;;;;23.13;57.71;100782.25;5053609;28;20025;-66
2022/06/25 00:28:35;;;;;;;2.10;1.10;;;;;;;23.10;57.72;100779.91;5053951;28;20054;-66
2022/06/25 00:31:00;;;;;;;2.78;1.20;;;;;;;23.11;57.75;100778.91;5052622;28;20025;-66
2022/06/25 00:33:25;;;;;;;2.30;1.20;;;;;;;23.10;57.63;100785.22;5053585;28;20029;-66
2022/06/25 00:35:51;;;;;;;2.30;1.10;;;;;;;23.10;57.85;100777.25;5053847;28;20752;-66
2022/06/25 00:38:16;;;;;;;2.00;1.20;;;;;;;23.10;57.58;100777.25;5052515;28;20225;-66
2022/06/25 00:40:41;;;;;;;3.73;1.30;;;;;;;23.09;57.78;100783.56;5053738;28;20029;-66
2022/06/25 00:43:06;;;;;;;2.85;1.30;;;;;;;23.09;57.58;100780.91;5053262;28;20625;-66
2022/06/25 00:45:32;;;;;;;2.63;1.23;;;;;;;23.10;57.51;100789.72;5052800;28;20104;-66
2022/06/25 00:47:57;;;;;;;2.15;1.20;;;;;;;23.08;57.88;100789.88;5053343;28;20266;-66
2022/06/25 00:50:22;;;;;;;2.60;1.00;;;;;;;23.08;57.38;100792.53;5053574;28;20439;-66
2022/06/25 00:52:54;;;;;;;2.63;1.20;;;;;;;23.08;57.26;100783.72;5052788;28;20353;-66
2022/06/25 00:55:23;;;;;;;1.55;1.00;;;;;;;23.08;57.34;100783.72;5053041;28;20078;-66
2022/06/25 00:57:50;;;;;;;1.95;1.10;;;;;;;23.07;57.56;100790.00;5053576;28;20025;-66
2022/06/25 01:00:17;;;;;;;2.58;1.30;;;;;;;23.06;57.39;100791.81;5052466;28;20154;-65
2022/06/25 01:02:44;;;;;;;2.45;1.13;;;;;;;23.06;57.49;100799.78;5053620;28;20032;-66
2022/06/25 01:05:12;;;;;;;3.70;1.20;;;;;;;23.07;57.66;100800.66;5052821;28;20029;-66
2022/06/25 01:07:38;;;;;;;2.42;1.10;;;;;;;23.06;57.39;100801.63;5054043;28;20033;-66
2022/06/25 01:10:08;;;;;;;2.97;1.50;;;;;;;23.06;57.43;100801.63;5053147;28;20074;-66
2022/06/25 01:12:35;;;;;;;2.47;1.17;;;;;;;23.05;57.16;100800.81;5052938;28;20048;-66
2022/06/25 01:15:08;;;;;;;2.03;1.17;;;;;;;23.05;57.41;100805.25;5053376;28;20036;-65
2022/06/25 01:17:43;;;;;;;2.35;1.15;;;;;;;23.04;57.37;100804.44;5053401;28;20024;-66
2022/06/25 01:20:09;;;;;;;2.22;1.10;;;;;;;23.04;57.21;100807.09;5052173;28;20037;-66
2022/06/25 01:22:35;;;;;;;2.00;1.08;;;;;;;23.03;57.54;100810.72;5053145;28;20028;-66
2022/06/25 01:25:00;;;;;;;3.28;1.10;;;;;;;23.01;57.23;100810.88;5052846;28;20383;-66
2022/06/25 01:27:25;;;;;;;1.95;1.10;;;;;;;23.03;56.94;100817.88;5052185;28;20078;-66
2022/06/25 01:29:51;;;;;;;1.90;1.10;;;;;;;23.01;57.25;100818.88;5053330;28;20099;-66
2022/06/25 01:32:16;;;;;;;2.88;1.30;;;;;;;23.00;57.34;100816.38;5052689;28;20450;-66
2022/06/25 01:34:42;;;;;;;1.98;1.10;;;;;;;23.00;57.04;100824.34;5052378;28;20111;-66
2022/06/25 01:37:07;;;;;;;2.70;1.13;;;;;;;23.00;57.32;100821.69;5052449;28;20031;-66
2022/06/25 01:39:33;;;;;;;2.05;1.00;;;;;;;23.00;57.39;100829.66;5052794;28;20414;-66
2022/06/25 01:41:58;;;;;;;2.92;1.10;;;;;;;23.00;56.97;100838.47;5051498;28;20023;-66
2022/06/25 01:44:23;;;;;;;1.60;1.00;;;;;;;22.98;57.17;100839.63;5052877;28;20495;-66
2022/06/25 01:46:49;;;;;;;3.10;1.17;;;;;;;22.99;56.86;100841.28;5053020;28;20017;-66
2022/06/25 01:49:15;;;;;;;2.33;1.20;;;;;;;22.98;56.85;100842.28;5051726;28;20032;-66
2022/06/25 01:51:40;;;;;;;1.90;1.00;;;;;;;22.98;56.87;100842.28;5052765;28;20079;-66
2022/06/25 01:54:05;;;;;;;2.38;1.20;;;;;;;22.98;57.18;100844.94;5052265;28;20037;-66
2022/06/25 01:56:31;;;;;;;3.67;1.40;;;;;;;22.98;56.76;100855.56;5051718;28;20471;-66
2022/06/25 01:58:56;;;;;;;2.43;1.20;;;;;;;22.97;57.38;100852.06;5052513;28;20037;-66
2022/06/25 02:01:21;;;;;;;2.70;1.30;;;;;;;22.96;57.02;100861.03;5051913;28;20610;-66
2022/06/25 02:03:46;;;;;;;2.90;1.30;;;;;;;22.97;56.99;100860.06;5052409;28;20289;-66
2022/06/25 02:06:12;;;;;;;3.00;1.20;;;;;;;22.95;56.79;100861.19;5052230;28;20277;-66
2022/06/25 02:08:38;;;;;;;2.17;1.27;;;;;;;22.95;56.82;100856.69;5051712;28;20017;-66
2022/06/25 02:11:07;;;;;;;3.05;1.20;;;;;;;22.96;56.52;100870.84;5052055;28;20404;-66
2022/06/25 02:13:33;;;;;;;2.45;1.20;;;;;;;22.96;56.60;100862.88;5052364;28;20483;-66
2022/06/25 02:15:59;;;;;;;2.80;1.30;;;;;;;22.96;56.69;100870.84;5051465;28;20156;-66
2022/06/25 02:18:25;;;;;;;2.97;1.30;;;;;;;22.94;56.55;100867.47;5052585;28;20029;-66
2022/06/25 02:20:50;;;;;;;2.85;1.20;;;;;;;22.94;56.71;100871.00;5053807;28;20476;-66
2022/06/25 02:23:18;;;;;;;2.53;1.30;;;;;;;22.95;56.37;100871.81;5055140;28;20065;-67
2022/06/25 02:25:43;;;;;;;3.33;1.50;;;;;;;22.94;56.74;100881.63;5056000;28;20070;-66
2022/06/25 02:28:10;;;;;;;3.08;1.30;;;;;;;22.94;56.28;100878.97;5055854;28;20096;-67
2022/06/25 02:30:35;;;;;;;3.38;1.20;;;;;;;22.93;56.54;100879.94;5055350;28;20017;-66
2022/06/25 02:33:02;;;;;;;3.58;1.67;;;;;;;22.93;56.62;100882.59;5055776;28;20079;-66
2022/06/25 02:35:28;;;;;;;2.80;1.15;;;;;;;22.93;56.38;100889.75;5055682;28;20048;-66
2022/06/25 02:37:53;;;;;;;3.05;1.38;;;;;;;22.92;56.12;100891.56;5055711;28;20510;-66
2022/06/25 02:40:18;;;;;;;3.15;1.30;;;;;;;22.91;56.24;100889.91;5056051;28;20036;-66
2022/06/25 02:42:43;;;;;;;2.67;1.23;;;;;;;22.91;56.31;100897.06;5056529;28;20100;-66
2022/06/25 02:45:10;;;;;;;1.95;1.13;;;;;;;22.91;56.09;100891.72;5055075;28;20099;-66
2022/06/25 02:47:35;;;;;;;3.03;1.40;;;;;;;22.91;56.29;100907.69;5055967;28;20029;-67
2022/06/25 02:50:01;;;;;;;2.22;1.33;;;;;;;22.91;56.17;100908.50;5055300;28;20098;-67
2022/06/25 02:52:26;;;;;;;2.42;1.20;;;;;;;22.91;56.17;100910.34;5054884;28;20067;-66
2022/06/25 02:54:52;;;;;;;4.05;1.52;;;;;;;22.90;56.34;100920.09;5055515;28;20021;-66
2022/06/25 03:00:03;;;;;;;;;;;;;;;22.87;56.25;100917.75;5055765;28;20024;-66
2022/06/25 03:02:28;;;;;;;2.78;1.40;;;;;;;22.88;55.99;100914.13;5055693;28;19951;-66
2022/06/25 03:04:54;;;;;;;2.63;1.30;;;;;;;22.89;56.33;100912.28;5054809;28;20044;-66
2022/06/25 03:07:20;;;;;;;2.35;1.30;;;;;;;22.89;56.17;100914.94;5054942;28;20027;-66
2022/06/25 03:09:45;;;;;;;3.72;1.38;;;;;;;22.87;56.29;100908.97;5055513;28;20024;-67
2022/06/25 03:12:12;;;;;;;3.10;1.50;;;;;;;22.87;56.17;100909.78;5054236;28;20029;-66
2022/06/25 03:14:37;;;;;;;2.80;1.35;;;;;;;22.86;56.03;100910.78;5055263;28;20040;-67
2022/06/25 03:17:02;;;;;;;2.83;1.33;;;;;;;22.87;56.19;100911.63;5055014;28;20100;-66
2022/06/25 03:19:28;;;;;;;2.65;1.33;;;;;;;22.86;55.92;100908.13;5054485;28;20072;-66
2022/06/25 03:21:53;;;;;;;2.55;1.38;;;;;;;22.86;55.96;100912.59;5055049;28;20430;-66
2022/06/25 03:24:18;;;;;;;3.88;1.55;;;;;;;22.83;56.29;100911.94;5054802;28;20021;-66
2022/06/25 03:26:44;;;;;;;4.18;1.58;;;;;;;22.85;56.03;100906.47;5054181;28;20434;-66
2022/06/25 03:29:09;;;;;;;3.70;1.33;;;;;;;22.85;55.77;100910.94;5054838;28;20040;-66
2022/06/25 03:31:35;;;;;;;2.65;1.50;;;;;;;22.84;55.74;100920.72;5054902;28;20270;-66
2022/06/25 03:34:00;;;;;;;3.95;1.65;;;;;;;22.83;55.78;100914.59;5053491;28;20053;-66
2022/06/25 03:36:26;;;;;;;2.60;1.60;;;;;;;22.82;55.92;100923.53;5054779;28;20048;-66
2022/06/25 03:38:51;;;;;;;3.08;1.30;;;;;;;22.84;55.92;100928.69;5054732;28;20029;-67
2022/06/25 03:41:32;;;;;;;3.78;1.40;;;;;;;22.83;55.72;100924.38;5053573;28;20032;-67
2022/06/25 03:43:58;;;;;;;5.40;1.60;;;;;;;22.83;55.85;100924.38;5054426;28;20037;-66
2022/06/25 03:46:23;;;;;;;3.28;1.65;;;;;;;22.82;56.08;100920.88;5054605;28;20029;-67
2022/06/25 03:48:49;;;;;;;2.13;1.25;;;;;;;22.82;55.76;100928.84;5053607;28;20075;-66
2022/06/25 03:51:14;;;;;;;2.97;1.38;;;;;;;22.82;56.02;100931.50;5054420;28;20429;-66
2022/06/25 03:53:39;;;;;;;2.85;1.35;;;;;;;22.82;55.70;100926.19;5054514;28;20028;-66
2022/06/25 03:56:05;;;;;;;4.03;1.50;;;;;;;22.81;55.76;100924.53;5053412;28;20435;-66
2022/06/25 03:58:30;;;;;;;3.53;1.55;;;;;;;22.82;55.74;100925.38;5054328;28;20372;-66
2022/06/25 04:00:55;;;;;;;2.75;1.45;;;;;;;22.83;55.88;100927.03;5053362;28;20059;-67
2022/06/25 04:03:21;;;;;;;3.63;1.50;;;;;;;22.83;55.68;100927.03;5054115;28;20021;-66
2022/06/25 04:05:46;;;;;;;2.80;1.40;;;;;;;22.81;56.03;100929.84;5054251;28;20273;-66
2022/06/25 04:08:11;;;;;;;3.08;1.40;;;;;;;22.82;55.73;100931.50;5053347;28;20049;-67
2022/06/25 04:10:36;;;;;;;2.85;1.50;;;;;;;22.82;55.79;100930.69;5054117;28;20430;-66
2022/06/25 04:13:02;;;;;;;2.83;1.40;;;;;;;22.83;55.66;100940.31;5053774;28;20029;-67
2022/06/25 04:15:27;;;;;;;3.33;1.50;;;;;;;22.82;55.98;100939.47;5053205;28;20067;-66
2022/06/25 04:17:52;;;;;;;2.83;1.52;;;;;;;22.80;55.66;100936.16;5054028;28;20017;-67
2022/06/25 04:20:18;;;;;;;2.87;1.40;;;;;;;22.81;55.79;100931.66;5053470;28;20025;-66
2022/06/25 04:22:43;;;;;;;3.45;1.50;;;;;;;22.81;55.78;100934.31;5053319;28;20295;-67
2022/06/25 04:25:09;;;;;;;3.07;1.53;;;;;;;22.80;55.99;100938.81;5053591;28;20056;-66
2022/06/25 04:30:25;;;;;;;2.58;1.30;;;;;;;22.80;56.12;100932.66;5044478;28;20043;-66
2022/06/25 04:32:50;;;;;;;3.28;1.40;;;;;;;22.80;55.88;100946.78;5053538;28;20100;-66
2022/06/25 04:35:16;;;;;;;2.45;1.20;;;;;;;22.81;55.89;100956.41;5052934;28;20079;-66
2022/06/25 04:37:41;;;;;;;2.40;1.20;;;;;;;22.79;55.90;100950.41;5052840;28;20040;-66
2022/06/25 04:40:07;;;;;;;2.97;1.48;;;;;;;22.81;56.04;100956.41;5052971;28;20037;-66
2022/06/25 04:42:32;;;;;;;3.78;1.40;;;;;;;22.79;56.05;100955.72;5053435;28;20027;-66
2022/06/25 04:44:58;;;;;;;2.65;1.33;;;;;;;22.81;55.83;100958.22;5051685;28;20021;-66
2022/06/25 04:47:23;;;;;;;4.32;1.63;;;;;;;22.80;55.86;100960.06;5053366;28;20037;-66
2022/06/25 04:49:49;;;;;;;4.60;1.40;;;;;;;22.81;56.26;100964.41;5053465;28;20468;-66
2022/06/25 04:52:14;;;;;;;4.25;2.20;;;;;;;22.81;56.06;100963.53;5052449;28;20294;-66
2022/06/25 04:54:40;;;;;;;2.72;1.38;;;;;;;22.79;55.91;100958.38;5053213;28;20028;-66
2022/06/25 04:57:05;;;;;;;2.35;1.40;;;;;;;22.79;56.00;100960.22;5052866;28;20025;-66
2022/06/25 04:59:30;;;;;;;5.53;1.70;;;;;;;22.81;56.10;100959.06;5052359;28;20388;-66
2022/06/25 05:01:56;;;;;;;2.60;1.40;;;;;;;22.79;56.01;100965.53;5052765;28;20024;-66
2022/06/25 05:04:24;;;;;;;2.40;1.50;;;;;;;22.81;56.03;100974.16;5052825;28;20273;-65
2022/06/25 05:06:50;;;;;;;3.97;1.63;;;;;;;22.79;55.99;100970.84;5053610;28;20764;-66
2022/06/25 05:09:15;;;;;;;3.28;1.50;;;;;;;22.79;56.31;100979.63;5052595;28;20037;-66
2022/06/25 05:11:40;;;;;;;3.15;1.50;;;;;;;22.79;55.86;100973.50;5052191;28;20021;-67
2022/06/25 05:14:06;;;;;;;2.97;1.80;;;;;;;22.79;56.22;100971.66;5052537;28;20099;-66
2022/06/25 05:16:31;;;;;;;2.47;1.30;;;;;;;22.79;55.94;100982.28;5052929;28;20296;-66
2022/06/25 05:18:56;;;;;;;3.28;1.60;;;;;;;22.79;56.18;100979.63;5052562;28;20274;-67
2022/06/25 05:21:21;;;;;;;3.67;1.70;;;;;;;22.79;55.89;100984.13;5053267;28;20021;-66
2022/06/25 05:23:47;;;;;;;3.03;1.53;;;;;;;22.79;56.34;100990.25;5052761;28;20032;-66
2022/06/25 05:26:13;;;;;;;3.60;1.50;;;;;;;22.79;55.94;100984.94;5051781;28;20285;-66
2022/06/25 05:28:38;;;;;;;3.65;1.70;;;;;;;22.82;56.07;100994.44;5052702;28;20044;-66
2022/06/25 05:31:03;;;;;;;2.30;1.40;;;;;;;22.79;56.37;100987.59;5052238;28;20025;-66
2022/06/25 05:33:29;;;;;;;4.05;1.90;;;;;;;22.81;55.99;100987.44;5051617;28;20045;-66
2022/06/25 05:35:54;;;;;;;2.85;1.58;;;;;;;22.82;56.23;100989.13;5052665;28;20029;-66
2022/06/25 05:38:20;;;;;;;3.72;1.58;;;;;;;22.82;55.93;100995.28;5052348;28;20021;-67
2022/06/25 05:40:45;;;;;;;3.30;1.50;;;;;;;22.83;56.17;100996.94;5051900;28;20025;-65
2022/06/25 05:43:11;;;;;;;3.15;1.40;;;;;;;22.85;56.09;100998.63;5052305;28;20024;-67
2022/06/25 05:45:36;;;;;;;3.03;1.38;;;;;;;22.86;56.13;100997.63;5052552;28;20044;-67
2022/06/25 05:48:02;;;;;;;3.25;1.65;;;;;;;22.87;56.12;101005.44;5051682;28;20104;-67
2022/06/25 05:50:27;;;;;;;3.92;1.63;;;;;;;22.87;55.94;101004.63;5052666;28;20061;-67
2022/06/25 05:52:53;;;;;;;5.22;1.45;;;;;;;22.89;56.01;101005.28;5052530;28;20039;-67
2022/06/25 05:55:19;;;;;;;2.03;1.20;;;;;;;22.89;55.82;101005.28;5052079;28;20029;-67
2022/06/25 05:57:45;;;;;;;3.60;1.60;;;;;;;22.89;56.01;101013.25;5056320;28;20028;-67
2022/06/25 06:00:11;;;;;;;3.47;1.63;;;;;;;22.90;56.10;101017.59;5056167;28;20025;-67
2022/06/25 06:02:36;;;;;;;2.88;1.33;;;;;;;22.91;55.78;101019.28;5055863;28;20379;-67
2022/06/25 06:05:02;;;;;;;2.95;1.48;;;;;;;22.90;56.25;101018.44;5056319;28;20035;-67
2022/06/25 06:07:28;;;;;;;4.28;1.70;;;;;;;22.90;55.83;101017.59;5056567;28;20040;-67
2022/06/25 06:09:53;;;;;;;4.53;1.83;;;;;;;22.91;56.02;101024.59;5055927;28;20388;-67
2022/06/25 06:12:18;;;;;;;2.55;1.50;;;;;;;22.92;55.84;101016.47;5055933;28;20491;-67
2022/06/25 06:14:44;;;;;;;2.92;1.27;;;;;;;22.91;55.99;101022.78;5055354;28;20115;-66
2022/06/25 06:17:09;;;;;;;3.42;1.65;;;;;;;22.92;55.88;101026.25;5056101;28;20078;-65
2022/06/25 06:19:35;;;;;;;5.32;1.80;;;;;;;22.83;55.77;101028.00;5056063;28;20460;-66
2022/06/25 06:22:00;;;;;;;7.60;2.25;;;;;;;22.70;55.23;101028.38;5055074;28;20029;-65
2022/06/25 06:24:25;;;;;;;5.75;1.98;;;;;;;22.57;55.68;101034.06;5056268;28;20028;-66
2022/06/25 06:26:50;;;;;;;6.23;1.87;;;;;;;22.45;55.68;101038.72;5056146;28;20031;-65
2022/06/25 06:29:17;;;;;;;4.07;1.80;;;;;;;22.39;56.48;101036.66;5054810;28;20288;-66
2022/06/25 06:31:43;;;;;;;5.47;2.03;;;;;;;22.31;56.29;101038.41;5055689;28;20278;-65
2022/06/25 06:34:08;;;;;;;5.05;1.80;;;;;;;22.20;56.97;101037.56;5055083;28;20110;-65
2022/06/25 06:36:33;;;;;;;3.83;1.92;;;;;;;22.14;57.25;101046.09;5055079;28;20033;-65
2022/06/25 06:38:59;;;;;;;3.90;2.00;;;;;;;22.10;57.22;101044.75;5055417;28;20431;-69
2022/06/25 06:41:24;;;;;;;5.32;2.00;;;;;;;22.04;57.34;101048.81;5055754;28;20278;-67
2022/06/25 06:43:50;;;;;;;4.22;1.77;;;;;;;22.00;57.45;101047.44;5054793;28;20386;-67
2022/06/25 06:46:15;;;;;;;5.22;2.35;;;;;;;21.96;57.92;101046.03;5055469;28;20056;-66
2022/06/25 06:48:40;;;;;;;5.95;2.33;;;;;;;21.95;58.63;101052.31;5055662;28;20104;-67
2022/06/25 06:51:06;;;;;;;5.18;1.92;;;;;;;21.96;57.68;101050.53;5054385;28;20032;-65
2022/06/25 06:53:32;;;;;;;3.78;2.00;;;;;;;21.95;58.34;101056.81;5055482;28;20021;-65
2022/06/25 06:55:59;;;;;;;4.35;1.95;;;;;;;21.92;58.08;101053.47;5055185;28;20021;-66
2022/06/25 06:58:24;;;;;;;3.85;1.70;;;;;;;21.93;57.95;101051.63;5054670;28;20020;-65
2022/06/25 07:00:49;;;;;;;4.13;1.77;;;;;;;21.93;58.14;101047.16;5055138;28;20025;-66
2022/06/25 07:03:15;;;;;;;6.20;1.77;;;;;;;21.96;57.97;101047.88;5055141;28;20037;-72
2022/06/25 07:05:40;;;;;;;4.30;1.80;;;;;;;22.04;57.63;101042.66;5054551;28;20341;-72
2022/06/25 07:08:05;;;;;;;5.38;1.98;;;;;;;22.12;57.60;101044.59;5054455;28;20430;-70
2022/06/25 07:10:31;;;;;;;5.75;1.75;;;;;;;22.22;57.05;101042.72;5055257;28;20028;-72
2022/06/25 07:12:56;;;;;;;7.00;1.90;;;;;;;22.30;57.38;101047.34;5054015;28;20437;-72
2022/06/25 07:15:21;;;;;;;4.45;1.75;;;;;;;22.38;57.41;101045.63;5054842;28;20032;-67
2022/06/25 07:17:47;;;;;;;3.40;1.60;;;;;;;22.45;57.04;101046.69;5055189;28;20047;-66
2022/06/25 07:20:12;;;;;;;6.68;1.55;;;;;;;22.52;56.72;101052.25;5054479;28;20024;-68
2022/06/25 07:22:38;;;;;;;5.15;1.90;;;;;;;22.56;56.44;101055.47;5055311;28;20028;-65
2022/06/25 07:25:04;;;;;;;7.07;1.90;;;;;;;22.53;56.11;101050.44;5053694;28;20017;-67
2022/06/25 07:27:29;;;;;;;6.13;1.90;;;;;;;22.47;56.24;101049.19;5054643;28;20017;-71
2022/06/25 07:29:55;;;;;;;3.67;1.65;;;;;;;22.40;56.73;101058.75;5054766;28;20039;-70
2022/06/25 07:32:20;;;;;;;5.60;1.90;;;;;;;22.35;57.51;101055.69;5053893;28;20017;-69
2022/06/25 07:34:48;;;;;;;5.10;1.70;;;;;;;22.31;57.57;101057.81;5054381;28;20525;-71
2022/06/25 07:37:14;;;;;;;3.30;1.50;;;;;;;22.30;57.41;101057.97;5054289;28;20031;-71
2022/06/25 07:39:39;;;;;;;6.03;1.70;;;;;;;22.27;57.56;101053.72;5054227;28;20108;-70
2022/06/25 07:42:04;;;;;;;4.75;1.80;;;;;;;22.24;57.93;101049.56;5054483;28;20048;-64
2022/06/25 07:44:30;;;;;;;4.30;1.85;;;;;;;22.25;57.46;101063.66;5054825;28;20487;-69
2022/06/25 07:46:55;;;;;;;5.75;1.90;;;;;;;22.24;57.61;101067.31;5053952;28;20033;-63
2022/06/25 07:49:21;;;;;;;5.75;1.70;;;;;;;22.23;57.30;101063.81;5054526;28;20100;-64
2022/06/25 07:52:01;;;;;;;5.47;1.67;;;;;;;22.22;58.44;101066.63;5054402;28;20467;-66
2022/06/25 07:54:29;;;;;;;4.93;2.10;;;;;;;22.21;58.49;101065.78;5053724;28;20464;-65
2022/06/25 07:56:54;;;;;;;4.32;1.60;;;;;;;22.22;58.09;101053.34;5054019;28;20054;-65
2022/06/25 07:59:23;;;;;;;4.20;1.52;;;;;;;22.22;58.03;101067.47;5054054;28;20525;-65
2022/06/25 08:01:49;;;;;;;5.05;1.85;;;;;;;22.22;58.00;101063.97;5053407;28;20441;-65
2022/06/25 08:04:14;;;;;;;4.18;1.60;;;;;;;22.23;58.30;101069.13;5053693;28;20455;-64
2022/06/25 08:06:41;;;;;;;5.38;1.67;;;;;;;22.29;58.32;101070.38;5054107;28;20021;-66
2022/06/25 08:09:07;;;;;;;3.90;1.80;;;;;;;22.33;57.78;101063.81;5052927;28;20024;-60
2022/06/25 08:11:32;;;;;;;4.00;1.60;;;;;;;22.37;57.52;101059.06;5053989;28;20474;-67
2022/06/25 08:13:58;;;;;;;4.13;1.77;;;;;;;22.40;57.67;101062.25;5053718;28;20029;-66
2022/06/25 08:16:25;;;;;;;4.45;1.63;;;;;;;22.43;57.23;101067.25;5053237;28;20021;-68
2022/06/25 08:18:51;;;;;;;4.35;1.77;;;;;;;22.48;57.31;101064.16;5053047;28;20472;-67
2022/06/25 08:21:17;;;;;;;4.18;1.40;;;;;;;22.51;57.27;101066.53;5052635;28;20033;-65
2022/06/25 08:23:42;;;;;;;4.25;1.55;;;;;;;22.51;57.07;101074.50;5053653;28;20017;-66
2022/06/25 08:26:07;;;;;;;3.33;1.50;;;;;;;22.51;57.30;101073.63;5053236;28;20064;-62
2022/06/25 08:28:33;;;;;;;8.73;1.70;;;;;;;22.46;57.76;101072.28;5053037;28;20431;-65
2022/06/25 08:30:58;;;;;;;4.45;1.40;;;;;;;22.46;58.53;101082.91;5053425;28;20534;-61
2022/06/25 08:33:23;;;;;;;4.55;1.50;;;;;;;22.48;58.39;101073.94;5053481;28;20460;-63
2022/06/25 08:35:49;;;;;;;4.68;1.40;;;;;;;22.48;58.43;101081.91;5052643;28;20132;-64
2022/06/25 08:38:16;;;;;;;4.18;1.50;;;;;;;22.47;58.12;101075.75;5053183;28;20481;-64
2022/06/25 08:40:41;;;;;;;3.78;1.40;;;;;;;22.45;58.52;101070.59;5053300;28;20086;-65
2022/06/25 08:43:07;;;;;;;4.95;1.63;;;;;;;22.46;58.26;101072.28;5052417;28;20028;-67
2022/06/25 08:45:33;;;;;;;3.47;1.65;;;;;;;22.47;58.17;101070.44;5053509;28;20056;-61
2022/06/25 08:48:00;;;;;;;4.75;1.83;;;;;;;22.50;58.04;101071.97;5052945;28;20025;-64
2022/06/25 08:50:25;;;;;;;5.18;1.77;;;;;;;22.51;57.87;101078.94;5052378;28;20468;-62
2022/06/25 08:52:54;;;;;;;3.05;1.33;;;;;;;22.53;57.75;101074.34;5053153;28;20028;-65
2022/06/25 08:55:34;;;;;;;4.78;1.85;;;;;;;22.54;57.87;101071.53;5052703;28;20029;-60
2022/06/25 08:58:00;;;;;;;4.18;1.60;;;;;;;22.57;57.49;101070.38;5052291;28;20033;-60
2022/06/25 09:00:28;;;;;;;4.78;1.45;;;;;;;22.57;57.07;101070.38;5053131;28;20021;-61
2022/06/25 09:02:53;;;;;;;3.88;1.30;;;;;;;22.59;56.88;101074.59;5053153;28;20025;-62
2022/06/25 09:05:28;;;;;;;2.97;1.10;;;;;;;22.63;56.85;101075.94;5052348;28;20059;-60
2022/06/25 09:07:55;;;;;;;3.08;1.30;;;;;;;22.66;56.80;101074.81;5052790;28;20101;-60
2022/06/25 09:10:22;;;;;;;4.03;1.67;;;;;;;22.69;57.33;101077.19;5052783;28;20037;-62
2022/06/25 09:12:51;;;;;;;3.03;1.60;;;;;;;22.71;56.84;101079.69;5052883;28;20027;-62
2022/06/25 09:15:22;;;;;;;5.03;1.70;;;;;;;22.70;57.71;101076.19;5052391;28;20112;-62
2022/06/25 09:17:52;;;;;;;4.22;1.60;;;;;;;22.69;57.35;101079.00;5052240;28;20028;-62
2022/06/25 09:20:22;;;;;;;3.92;1.27;;;;;;;22.70;57.32;101084.16;5052519;28;20028;-62
2022/06/25 09:23:05;;;;;;;5.25;1.73;;;;;;;22.70;57.47;101076.19;5052935;28;20044;-62
2022/06/25 09:25:32;;;;;;;4.50;1.60;;;;;;;22.70;57.30;101081.50;5052308;28;20029;-63
2022/06/25 09:27:57;;;;;;;3.70;1.30;;;;;;;22.69;57.33;101082.50;5052615;28;20021;-63
2022/06/25 09:30:26;;;;;;;2.72;1.33;;;;;;;22.67;57.36;101081.81;5053213;28;20502;-61
2022/06/25 09:32:59;;;;;;;3.97;1.58;;;;;;;22.67;57.16;101079.16;5052777;28;20090;-62
2022/06/25 09:35:39;;;;;;;3.40;1.50;;;;;;;22.62;57.47;101073.44;5044939;28;20152;-63
2022/06/25 09:38:10;;;;;;;3.85;1.30;;;;;;;22.58;57.55;101080.88;5031746;28;20075;-63
2022/06/25 09:40:37;;;;;;;3.15;1.40;;;;;;;22.55;58.57;101081.16;5031331;28;20068;-61
2022/06/25 09:43:20;;;;;;;3.47;1.40;;;;;;;22.54;57.93;101079.50;5030928;28;20021;-61
2022/06/25 09:45:47;;;;;;;3.47;1.40;;;;;;;22.54;58.24;101079.50;4168438;28;10001030;-63
2022/06/25 09:48:21;;;;;;;3.30;1.35;;;;;;;22.53;57.82;101079.66;4985220;28;20132;-62
2022/06/25 09:51:09;;;;;;;4.00;1.38;;;;;;;22.52;57.59;101078.78;5031533;28;20034;-62
2022/06/25 09:53:44;;;;;;;4.22;1.65;;;;;;;22.55;58.34;101083.00;5027169;28;73908;-62
2022/06/25 09:56:12;;;;;;;3.40;1.45;;;;;;;22.58;57.73;101082.69;5031961;28;20030;-65
2022/06/25 09:58:39;;;;;;;3.25;1.35;;;;;;;22.59;58.14;101085.19;5032076;28;20029;-64
2022/06/25 10:01:04;;;;;;;5.10;1.65;;;;;;;22.60;58.15;101091.34;5030878;28;20021;-65
2022/06/25 10:03:33;;;;;;;2.90;1.20;;;;;;;22.59;57.89;101095.00;5031895;28;20029;-64
2022/06/25 10:05:59;;;;;;;4.00;1.98;;;;;;;22.61;57.47;101085.06;5031305;28;20036;-63
2022/06/25 10:08:28;;;;;;;3.33;1.30;;;;;;;22.62;58.06;101084.06;5031175;28;20117;-65
2022/06/25 10:10:55;;;;;;;4.68;1.85;;;;;;;22.68;58.30;101090.59;5031908;28;20030;-65
2022/06/25 10:13:22;;;;;;;3.50;1.50;;;;;;;22.73;57.86;101089.19;5031770;28;20048;-66
2022/06/25 10:15:48;;;;;;;2.65;1.30;;;;;;;22.78;57.29;101084.25;5030853;28;20033;-65
2022/06/25 10:18:14;;;;;;;3.83;1.30;;;;;;;22.85;57.22;101081.00;5031779;28;20049;-70
2022/06/25 10:20:41;;;;;;;4.18;1.60;;;;;;;22.89;57.48;101088.53;5030462;28;20426;-64
2022/06/25 10:23:09;;;;;;;2.67;1.33;;;;;;;22.93;57.24;101081.06;5031888;28;20346;-62
2022/06/25 10:25:36;;;;;;;5.75;1.50;;;;;;;22.97;57.24;101085.09;5031063;28;20035;-68
2022/06/25 10:28:09;;;;;;;3.05;1.20;;;;;;;23.02;56.89;101082.84;5031323;28;20040;-65
2022/06/25 10:30:54;;;;;;;3.17;1.30;;;;;;;23.06;56.87;101065.59;5032351;28;20032;-67
2022/06/25 10:33:29;;;;;;;3.55;1.20;;;;;;;23.10;56.55;101067.00;5031732;28;20033;-67
2022/06/25 10:36:04;;;;;;;2.78;1.15;;;;;;;23.13;56.75;101065.84;5031723;28;20155;-66
2022/06/25 10:38:30;;;;;;;3.67;1.50;;;;;;;23.15;56.93;101062.03;5032463;28;20095;-67
2022/06/25 10:42:58;;;;;;;3.42;1.27;;;;;;;23.20;57.00;101071.41;5032150;28;20026;-68
2022/06/25 10:43:53;;;;;;;4.85;1.38;;;;;;;23.22;57.08;101074.72;5035107;28;20484;-64
2022/06/25 10:46:28;;;;;;;3.85;1.30;;;;;;;23.23;56.98;101079.06;5035675;28;20036;-67
2022/06/25 10:49:12;;;;;;;2.67;1.20;;;;;;;23.24;57.09;101078.91;5035126;28;20025;-69
2022/06/25 10:51:38;;;;;;;4.13;1.40;;;;;;;23.27;56.96;101075.09;5035818;28;20029;-57
2022/06/25 10:54:04;;;;;;;4.97;1.20;;;;;;;23.30;57.08;101072.13;5028019;28;20511;-60
2022/06/25 10:56:45;;;;;;;4.25;1.40;;;;;;;23.32;57.09;101078.13;5023613;28;20269;-66
2022/06/25 10:59:37;;;;;;;2.53;1.10;;;;;;;23.36;56.68;101076.84;5014748;28;20109;-67
2022/06/25 11:02:08;;;;;;;9.43;2.38;;;;;;;23.38;56.64;101068.72;5031065;28;20037;-62
2022/06/25 11:04:35;;;;;;;3.90;1.20;;;;;;;23.39;56.66;101073.88;5033823;28;20053;-64
2022/06/25 11:07:14;;;;;;;2.78;1.17;;;;;;;23.41;56.73;101069.22;5034355;28;20487;-63
2022/06/25 11:09:51;;;;;;;3.10;1.43;;;;;;;23.41;56.83;101079.03;5034807;28;20476;-70
2022/06/25 11:12:17;;;;;;;8.40;1.40;;;;;;;23.47;56.58;101079.25;5033665;28;20332;-71
2022/06/25 11:14:42;;;;;;;2.80;1.10;;;;;;;23.58;55.77;101078.19;5034320;28;20372;-73
2022/06/25 11:17:10;;;;;;;3.10;1.10;;;;;;;23.68;55.18;101070.94;5033760;28;20018;-70
2022/06/25 11:19:36;;;;;;;4.05;1.08;;;;;;;23.77;55.24;101081.66;5034704;28;20055;-73
2022/06/25 11:22:02;;;;;;;3.83;1.00;;;;;;;23.86;54.77;101080.72;5034372;28;20021;-66
2022/06/25 11:24:29;;;;;;;3.75;1.15;;;;;;;23.94;55.33;101077.28;5033693;28;20540;-59
2022/06/25 11:29:49;;;;;;;2.50;1.10;;;;;;;24.13;54.23;101078.88;5034709;28;20396;-64
2022/06/25 11:32:23;;;;;;;3.75;1.08;;;;;;;24.19;54.03;101088.91;5033927;28;20039;-61